Time;durP1;ratioP1;P1;durP2;ratioP2;P2;SDS_P1;SDS_P2;PMS_P1;PMS_P2;Temp;Humidity;BMP_temperature;BMP_pressure;BME280_temperature;BME280_humidity;BME280_pressure;Samples;Min_cycle;Max_cycle;Signal;HPM_P1;HPM_P2
2022/11/29 00:00:34;;;;;;;1999.90;999.90;;;;;;;5.51;98.51;100582.03;5000235;28;20070;-74
2022/11/29 00:03:00;;;;;;;1999.90;999.90;;;;;;;5.49;98.90;100582.00;5003880;28;20029;-75
2022/11/29 00:05:26;;;;;;;1999.90;999.90;;;;;;;5.55;98.49;100583.81;5002046;28;20445;-75
2022/11/29 00:07:51;;;;;;;1999.90;999.90;;;;;;;5.58;98.53;100586.50;5005540;28;20049;-75
2022/11/29 00:10:17;;;;;;;1999.90;999.90;;;;;;;5.59;98.43;100583.03;5003500;28;20045;-75
2022/11/29 00:12:42;;;;;;;1999.90;999.90;;;;;;;5.59;97.99;100584.78;5002970;28;20074;-74
2022/11/29 00:15:07;;;;;;;1999.90;999.90;;;;;;;5.60;97.97;100581.28;5003222;28;20122;-74
2022/11/29 00:17:33;;;;;;;1999.90;999.90;;;;;;;5.60;98.21;100587.41;5010160;28;20030;-75
2022/11/29 00:19:58;;;;;;;1999.90;999.90;;;;;;;5.56;98.04;100590.84;5005226;28;20069;-75
2022/11/29 00:22:24;;;;;;;1999.90;999.90;;;;;;;5.47;98.75;100586.31;4996929;28;20026;-74
2022/11/29 00:24:50;;;;;;;1999.90;999.90;;;;;;;5.46;98.24;100589.81;5002821;28;20531;-75
2022/11/29 00:27:16;;;;;;;1999.90;999.90;;;;;;;5.47;99.08;100590.69;4999895;28;20038;-75
2022/11/29 00:29:41;;;;;;;1999.90;999.90;;;;;;;5.44;99.05;100590.66;4982037;28;20125;-75
2022/11/29 00:32:06;;;;;;;1999.90;999.90;;;;;;;5.44;99.11;100591.50;4985248;28;20034;-74
2022/11/29 00:34:32;;;;;;;1999.90;999.90;;;;;;;5.44;98.41;100590.66;5004367;28;20037;-74
2022/11/29 00:36:57;;;;;;;1999.90;999.90;;;;;;;5.46;99.25;100583.69;5006654;28;20096;-74
2022/11/29 00:39:23;;;;;;;1999.90;999.90;;;;;;;5.45;98.50;100593.28;5001220;28;20038;-74
2022/11/29 00:41:48;;;;;;;1999.90;999.90;;;;;;;5.38;99.10;100586.19;5006334;28;20148;-74
2022/11/29 00:44:13;;;;;;;1999.90;999.90;;;;;;;5.39;99.55;100576.59;5007474;28;20045;-75
2022/11/29 00:46:39;;;;;;;1999.90;999.90;;;;;;;5.41;99.45;100582.75;5003243;28;20034;-75
2022/11/29 00:49:04;;;;;;;1999.90;999.90;;;;;;;5.43;99.52;100578.44;5006257;28;20085;-75
2022/11/29 00:51:30;;;;;;;1999.90;999.90;;;;;;;5.45;99.47;100582.81;5004525;28;20113;-75
2022/11/29 00:53:55;;;;;;;1999.90;999.90;;;;;;;5.46;99.13;100573.22;5007128;28;20042;-75
2022/11/29 00:56:20;;;;;;;1999.90;999.90;;;;;;;5.45;98.67;100576.72;5004211;28;20125;-75
2022/11/29 00:58:47;;;;;;;1999.90;999.90;;;;;;;5.45;98.95;100576.72;5004687;28;20045;-74
2022/11/29 01:01:12;;;;;;;1999.90;999.90;;;;;;;5.38;98.69;100577.47;5014078;28;20048;-75
2022/11/29 01:03:38;;;;;;;1999.90;999.90;;;;;;;5.32;99.59;100577.34;5009891;28;20485;-74
2022/11/29 01:06:07;;;;;;;1999.90;999.90;;;;;;;5.35;99.71;100580.03;5008523;28;20037;-74
2022/11/29 01:08:32;;;;;;;1999.90;999.90;;;;;;;5.35;100.00;100586.16;5011120;28;20485;-74
2022/11/29 01:11:01;;;;;;;1999.90;999.90;;;;;;;5.39;99.75;100576.59;4986445;28;20043;-75
2022/11/29 01:13:27;;;;;;;1999.90;999.90;;;;;;;5.38;100.00;100580.97;5008838;28;20485;-75
2022/11/29 01:15:58;;;;;;;1999.90;999.90;;;;;;;5.38;99.40;100580.97;5003267;28;20128;-75
2022/11/29 01:18:24;;;;;;;1999.90;999.90;;;;;;;5.37;99.88;100576.59;5004420;28;20034;-75
2022/11/29 01:21:01;;;;;;;1999.90;999.90;;;;;;;5.37;100.00;100584.44;5005315;28;20523;-75
2022/11/29 01:23:27;;;;;;;1999.90;999.90;;;;;;;5.35;100.00;100582.66;5006230;28;20484;-75
2022/11/29 01:25:56;;;;;;;1999.90;999.90;;;;;;;5.40;100.00;100581.00;5004093;28;20093;-75
2022/11/29 01:28:22;;;;;;;1999.90;999.90;;;;;;;5.44;99.93;100585.41;5003309;28;20051;-75
2022/11/29 01:30:47;;;;;;;1999.90;999.90;;;;;;;5.41;100.00;100590.59;5005969;28;20124;-74
2022/11/29 01:33:12;;;;;;;1999.90;999.90;;;;;;;5.40;100.00;100581.88;5006105;28;20029;-74
2022/11/29 01:35:37;;;;;;;1999.90;999.90;;;;;;;5.50;100.00;100580.25;5005184;28;20036;-75
2022/11/29 01:38:03;;;;;;;1999.90;999.90;;;;;;;5.52;100.00;100580.28;5005878;28;20042;-75
2022/11/29 01:40:28;;;;;;;1999.90;999.90;;;;;;;5.55;100.00;100586.44;5004131;28;20050;-75
2022/11/29 01:42:53;;;;;;;1999.90;999.90;;;;;;;5.57;99.91;100584.72;5005472;28;20045;-75
2022/11/29 01:45:22;;;;;;;1999.90;999.90;;;;;;;5.64;100.00;100585.72;5006136;28;20033;-75
2022/11/29 01:47:51;;;;;;;1999.90;999.90;;;;;;;5.66;99.86;100592.75;5001722;28;20512;-75
2022/11/29 01:50:17;;;;;;;1999.90;999.90;;;;;;;5.66;99.55;100587.50;5004824;28;20495;-75
2022/11/29 01:52:43;;;;;;;1999.90;999.90;;;;;;;5.69;100.00;100578.81;5003941;28;20042;-75
2022/11/29 01:55:09;;;;;;;1999.90;999.90;;;;;;;5.75;99.71;100581.50;5006174;28;20037;-75
2022/11/29 01:57:37;;;;;;;1999.90;999.90;;;;;;;5.78;100.00;100578.94;5002336;28;20069;-75
2022/11/29 02:00:10;;;;;;;1999.90;999.90;;;;;;;5.85;99.26;100579.91;5002349;28;20038;-75
2022/11/29 02:02:43;;;;;;;1999.90;999.90;;;;;;;5.88;98.89;100577.31;5003425;28;20390;-75
2022/11/29 02:05:11;;;;;;;1999.90;999.90;;;;;;;5.87;99.31;100578.19;5002075;28;20034;-75
2022/11/29 02:07:36;;;;;;;1999.90;999.90;;;;;;;5.90;98.97;100581.72;5005493;28;20037;-75
2022/11/29 02:10:03;;;;;;;1999.90;999.90;;;;;;;5.88;99.09;100583.44;5004442;28;20045;-75
2022/11/29 02:13:01;;;;;;;1999.90;999.90;;;;;;;5.96;99.05;100583.56;5009536;28;20555;-75
2022/11/29 02:15:41;;;;;;;1999.90;999.90;;;;;;;5.96;98.47;100585.31;5004591;28;20124;-75
2022/11/29 02:18:25;;;;;;;1999.90;999.90;;;;;;;5.98;98.70;100584.50;5003546;28;20045;-75
2022/11/29 02:21:10;;;;;;;1999.90;999.90;;;;;;;5.99;98.26;100591.47;5006978;28;20133;-75
2022/11/29 02:24:00;;;;;;;1999.90;999.90;;;;;;;5.87;99.01;100584.31;5005096;28;20076;-75
2022/11/29 02:26:57;;;;;;;1999.90;999.90;;;;;;;5.88;99.96;100586.06;5002045;28;20045;-75
2022/11/29 02:29:43;;;;;;;1999.90;999.90;;;;;;;5.83;100.00;100595.59;5003041;28;20100;-75
2022/11/29 02:32:40;;;;;;;1999.90;999.90;;;;;;;5.82;100.00;100592.97;5002682;28;20042;-75
2022/11/29 02:35:23;;;;;;;1999.90;999.90;;;;;;;5.87;100.00;100596.53;5004450;28;20046;-75
2022/11/29 02:37:57;;;;;;;1999.90;999.90;;;;;;;5.90;100.00;100599.19;5004695;28;20484;-75
2022/11/29 02:40:47;;;;;;;1999.90;999.90;;;;;;;5.92;100.00;100605.31;5004435;28;20095;-74
2022/11/29 02:43:53;;;;;;;1999.90;999.90;;;;;;;5.82;100.00;100606.94;4987127;28;20065;-74
2022/11/29 02:46:38;;;;;;;1999.90;999.90;;;;;;;5.81;100.00;100610.41;5002516;28;20497;-75
2022/11/29 02:49:39;;;;;;;1999.90;999.90;;;;;;;5.85;100.00;100600.88;5002091;28;20045;-75
2022/11/29 02:52:10;;;;;;;1999.90;999.90;;;;;;;5.69;100.00;100615.47;5003649;28;20038;-74
2022/11/29 02:54:49;;;;;;;1999.90;999.90;;;;;;;5.73;100.00;100606.78;5009391;28;20033;-75
2022/11/29 02:57:26;;;;;;;1999.90;999.90;;;;;;;5.80;100.00;100605.16;5002898;28;20041;-75
2022/11/29 03:00:06;;;;;;;1999.90;999.90;;;;;;;5.94;100.00;100606.25;5001569;28;20041;-74
2022/11/29 03:02:47;;;;;;;1999.90;999.90;;;;;;;5.93;100.00;100607.09;5001104;28;20416;-74
2022/11/29 03:05:27;;;;;;;1999.90;999.90;;;;;;;5.82;100.00;100619.16;5004698;28;20042;-75
2022/11/29 03:08:04;;;;;;;1999.90;999.90;;;;;;;5.66;100.00;100616.31;5004052;28;20484;-74
2022/11/29 03:10:42;;;;;;;1999.90;999.90;;;;;;;5.56;100.00;100616.16;4983067;28;20692;-74
2022/11/29 03:13:18;;;;;;;1999.90;999.90;;;;;;;5.60;100.00;100613.56;5002517;28;20046;-75
2022/11/29 03:15:56;;;;;;;1999.90;999.90;;;;;;;5.65;100.00;100624.13;5000588;28;20038;-75
2022/11/29 03:18:27;;;;;;;1999.90;999.90;;;;;;;5.62;100.00;100618.84;5011920;28;20040;-75
2022/11/29 03:21:11;;;;;;;1999.90;999.90;;;;;;;5.61;100.00;100623.22;5000726;28;20516;-75
2022/11/29 03:23:41;;;;;;;1999.90;999.90;;;;;;;5.58;100.00;100622.25;4986900;28;20022;-75
2022/11/29 03:26:15;;;;;;;1999.90;999.90;;;;;;;5.60;100.00;100617.94;5000518;28;20042;-75
2022/11/29 03:28:49;;;;;;;1999.90;999.90;;;;;;;5.65;100.00;100619.75;5029103;22;20045;-75
2022/11/29 03:31:23;;;;;;;1999.90;999.90;;;;;;;5.67;100.00;100625.91;5043375;28;20037;-75
2022/11/29 03:34:07;;;;;;;1999.90;999.90;;;;;;;5.75;100.00;100627.78;5041581;28;20511;-75
2022/11/29 03:37:08;;;;;;;1999.90;999.90;;;;;;;5.72;100.00;100634.72;5035637;28;20037;-75
2022/11/29 03:39:43;;;;;;;1999.90;999.90;;;;;;;5.79;100.00;100634.81;5032543;28;20068;-75
2022/11/29 03:42:18;;;;;;;1999.90;999.90;;;;;;;5.86;100.00;100628.81;5037951;28;20087;-75
2022/11/29 03:44:58;;;;;;;1999.90;999.90;;;;;;;5.85;100.00;100633.16;5039794;28;20033;-75
2022/11/29 03:47:32;;;;;;;1999.90;999.90;;;;;;;5.87;100.00;100631.47;5037822;28;20025;-76
2022/11/29 03:50:03;;;;;;;1999.90;999.90;;;;;;;5.87;100.00;100634.09;5040141;28;20030;-76
2022/11/29 03:52:37;;;;;;;1999.90;999.90;;;;;;;5.88;100.00;100632.34;5036526;28;20116;-76
2022/11/29 03:55:20;;;;;;;1999.90;999.90;;;;;;;5.93;100.00;100626.34;5022736;28;20124;-76
2022/11/29 03:58:16;;;;;;;1999.90;999.90;;;;;;;5.97;100.00;100626.38;5038034;28;20048;-76
2022/11/29 04:00:56;;;;;;;1999.90;999.90;;;;;;;5.92;100.00;100631.50;5039866;28;20580;-76
2022/11/29 04:03:55;;;;;;;1999.90;999.90;;;;;;;5.87;100.00;100627.97;5037321;28;20033;-76
2022/11/29 04:07:01;;;;;;;1999.90;999.90;;;;;;;5.88;100.00;100634.97;5004901;28;20037;-76
2022/11/29 04:10:03;;;;;;;1999.90;999.90;;;;;;;5.88;100.00;100633.22;5036473;28;20396;-76
2022/11/29 04:12:44;;;;;;;1999.90;999.90;;;;;;;5.91;100.00;100633.25;5040037;28;20102;-76
2022/11/29 04:15:32;;;;;;;1999.90;999.90;;;;;;;5.90;100.00;100634.13;5006624;28;20066;-76
2022/11/29 04:18:22;;;;;;;1999.90;999.90;;;;;;;5.97;100.00;100639.47;5037260;28;20034;-75
2022/11/29 04:21:09;;;;;;;1999.90;999.90;;;;;;;5.98;100.00;100629.03;5037703;28;20111;-76
2022/11/29 04:23:53;;;;;;;1999.90;999.90;;;;;;;6.00;100.00;100643.03;5037043;28;20387;-75
2022/11/29 04:26:27;;;;;;;1999.90;999.90;;;;;;;6.01;100.00;100649.16;5039008;28;20627;-77
2022/11/29 04:29:12;;;;;;;1999.90;999.90;;;;;;;6.06;100.00;100652.72;5040659;28;20123;-76
2022/11/29 04:31:50;;;;;;;1999.90;999.90;;;;;;;6.07;100.00;100637.00;5038774;28;20463;-76
2022/11/29 04:34:42;;;;;;;1999.90;999.90;;;;;;;6.09;100.00;100644.88;5042575;28;20072;-76
2022/11/29 04:37:53;;;;;;;1999.90;999.90;;;;;;;6.12;100.00;100640.56;5035225;28;20514;-76
2022/11/29 04:40:44;;;;;;;1999.90;999.90;;;;;;;6.17;100.00;100647.63;5041256;28;20040;-76
2022/11/29 04:43:45;;;;;;;1999.90;999.90;;;;;;;6.08;100.00;100648.38;5040187;28;20057;-75
2022/11/29 04:46:35;;;;;;;1999.90;999.90;;;;;;;6.14;100.00;100649.34;5036890;28;20499;-76
2022/11/29 04:49:36;;;;;;;1999.90;999.90;;;;;;;6.24;100.00;100647.72;5037145;28;20052;-75
2022/11/29 04:52:39;;;;;;;1999.90;999.90;;;;;;;6.25;100.00;100649.47;5029827;28;20034;-73
2022/11/29 04:55:29;;;;;;;1999.90;999.90;;;;;;;6.17;100.00;100652.84;5019084;28;20404;-75
2022/11/29 04:58:17;;;;;;;1999.90;999.90;;;;;;;6.11;100.00;100659.78;5036483;28;20116;-75
2022/11/29 05:00:55;;;;;;;1999.90;999.90;;;;;;;6.12;100.00;100661.53;5036059;28;20048;-75
2022/11/29 05:03:29;;;;;;;1999.90;999.90;;;;;;;6.22;100.00;100661.66;5039519;28;20052;-75
2022/11/29 05:06:12;;;;;;;1999.90;999.90;;;;;;;6.26;100.00;100668.69;5039181;28;20045;-75
2022/11/29 05:09:07;;;;;;;;;;;;;;;6.23;100.00;100666.03;5026131;28;20041;-75
2022/11/29 05:11:50;;;;;;;1999.90;999.90;;;;;;;6.26;100.00;100671.31;4970262;28;19953;-76
2022/11/29 05:14:20;;;;;;;1999.90;999.90;;;;;;;6.27;100.00;100666.09;5038971;28;20392;-76
2022/11/29 05:17:13;;;;;;;1999.90;999.90;;;;;;;6.32;100.00;100676.66;5040993;28;20469;-76
2022/11/29 05:19:51;;;;;;;;;;;;;;;6.34;100.00;100677.53;5040857;28;20440;-75
2022/11/29 05:22:25;;;;;;;1999.90;999.90;;;;;;;6.33;100.00;100675.78;5041067;28;19913;-75
2022/11/29 05:24:59;;;;;;;1999.90;999.90;;;;;;;6.14;100.00;100675.53;5042873;28;20033;-75
2022/11/29 05:27:41;;;;;;;1999.90;999.90;;;;;;;6.06;100.00;100676.28;5040722;28;20034;-76
2022/11/29 05:30:17;;;;;;;1999.90;999.90;;;;;;;6.10;100.00;100673.75;5025252;28;20029;-75
2022/11/29 05:32:54;;;;;;;1999.90;999.90;;;;;;;6.17;100.00;100689.56;5012081;28;20033;-76
2022/11/29 05:35:44;;;;;;;1999.90;999.90;;;;;;;6.14;100.00;100686.03;5035341;28;20033;-76
2022/11/29 05:38:39;;;;;;;1999.90;999.90;;;;;;;6.21;100.00;100683.47;5038289;28;20111;-76
2022/11/29 05:41:16;;;;;;;1999.90;999.90;;;;;;;6.27;100.00;100691.44;5040906;28;20029;-76
2022/11/29 05:43:56;;;;;;;1999.90;999.90;;;;;;;6.25;100.00;100687.91;5039012;28;20083;-76
2022/11/29 05:46:54;;;;;;;1999.90;999.90;;;;;;;6.26;100.00;100690.56;5037697;28;20118;-76
2022/11/29 05:49:33;;;;;;;1999.90;999.90;;;;;;;6.32;100.00;100684.53;5039715;28;20092;-76
2022/11/29 05:52:20;;;;;;;1999.90;999.90;;;;;;;6.27;100.00;100692.31;5035616;28;20124;-76
2022/11/29 05:55:06;;;;;;;1999.90;999.90;;;;;;;6.29;100.00;100701.09;5034624;28;20484;-76
2022/11/29 05:57:50;;;;;;;1999.90;999.90;;;;;;;6.25;100.00;100698.41;5041708;28;20390;-75
2022/11/29 06:00:17;;;;;;;1999.90;999.90;;;;;;;6.17;100.00;100700.91;5035603;28;20415;-76
2022/11/29 06:03:13;;;;;;;1999.90;999.90;;;;;;;6.23;100.00;100706.22;5008674;28;20036;-76
2022/11/29 06:05:53;;;;;;;1999.90;999.90;;;;;;;6.30;100.00;100696.72;5043078;28;20051;-76
2022/11/29 06:08:33;;;;;;;1999.90;999.90;;;;;;;6.31;100.00;100701.09;5040932;28;20064;-76
2022/11/29 06:11:05;;;;;;;1999.90;999.90;;;;;;;6.34;100.00;100701.13;5039171;28;20033;-75
2022/11/29 06:13:54;;;;;;;1999.90;999.90;;;;;;;6.20;100.00;100702.69;5023939;28;20037;-76
2022/11/29 06:16:33;;;;;;;1999.90;999.90;;;;;;;6.20;100.00;100707.94;5040928;28;20060;-76
2022/11/29 06:19:17;;;;;;;1999.90;999.90;;;;;;;6.23;100.00;100708.84;5006944;28;20091;-76
2022/11/29 06:22:33;;;;;;;1999.90;999.90;;;;;;;6.29;100.00;100710.69;5040020;28;20037;-76
2022/11/29 06:25:20;;;;;;;1999.90;999.90;;;;;;;6.31;100.00;100712.47;5007273;28;20052;-75
2022/11/29 06:27:57;;;;;;;1999.90;999.90;;;;;;;6.31;100.00;100715.09;5005497;28;20120;-76
2022/11/29 06:30:37;;;;;;;1999.90;999.90;;;;;;;6.34;100.00;100720.38;5023043;28;20123;-76
2022/11/29 06:33:21;;;;;;;1999.90;999.90;;;;;;;6.39;100.00;100723.03;5035934;28;20040;-76
2022/11/29 06:35:55;;;;;;;1999.90;999.90;;;;;;;6.38;100.00;100723.03;5042349;28;20091;-76
2022/11/29 06:38:27;;;;;;;1999.90;999.90;;;;;;;6.42;100.00;100728.38;5040887;28;20045;-76
2022/11/29 06:40:54;;;;;;;1999.90;999.90;;;;;;;6.45;100.00;100723.16;5033567;28;20180;-76
2022/11/29 06:43:20;;;;;;;1999.90;999.90;;;;;;;6.43;100.00;100730.09;5037458;28;20047;-76
2022/11/29 06:45:49;;;;;;;1999.90;999.90;;;;;;;6.43;100.00;100730.09;5036988;28;20029;-76
2022/11/29 06:48:23;;;;;;;1999.90;999.90;;;;;;;6.44;100.00;100731.84;5035396;28;20112;-75
2022/11/29 06:51:02;;;;;;;1999.90;999.90;;;;;;;6.47;100.00;100737.16;4998742;28;20060;-76
2022/11/29 06:53:45;;;;;;;1999.90;999.90;;;;;;;6.40;100.00;100737.94;5041628;28;20403;-76
2022/11/29 06:56:14;;;;;;;1999.90;999.90;;;;;;;6.40;100.00;100740.56;5023331;28;20570;-76
2022/11/29 06:58:49;;;;;;;1999.90;999.90;;;;;;;6.45;100.00;100744.13;5040368;28;20037;-75
2022/11/29 07:01:27;;;;;;;1999.90;999.90;;;;;;;6.44;100.00;100741.47;5037860;28;20220;-76
2022/11/29 07:04:18;;;;;;;1999.90;999.90;;;;;;;6.47;100.00;100741.50;5037214;28;20037;-76
2022/11/29 07:06:43;;;;;;;1999.90;999.90;;;;;;;6.47;100.00;100747.66;5039357;28;20036;-76
2022/11/29 07:09:14;;;;;;;1999.90;999.90;;;;;;;6.45;100.00;100751.13;5039038;28;20119;-76
2022/11/29 07:11:40;;;;;;;1999.90;999.90;;;;;;;6.48;100.00;100754.66;5037083;28;20040;-76
2022/11/29 07:14:06;;;;;;;1999.90;999.90;;;;;;;6.52;100.00;100752.94;5039821;28;20101;-76
2022/11/29 07:16:58;;;;;;;1999.90;999.90;;;;;;;6.52;100.00;100756.47;5043152;28;20503;-76
2022/11/29 07:19:52;;;;;;;1999.90;999.90;;;;;;;6.38;100.00;100757.13;5040180;28;20056;-75
2022/11/29 07:22:59;;;;;;;1999.90;999.90;;;;;;;6.47;100.00;100759.84;5021373;28;20045;-76
2022/11/29 07:25:43;;;;;;;1999.90;999.90;;;;;;;6.58;100.00;100767.03;5012124;28;20045;-75
2022/11/29 07:28:46;;;;;;;1999.90;999.90;;;;;;;6.65;100.00;100772.34;5022052;28;20403;-76
2022/11/29 07:31:34;;;;;;;1999.90;999.90;;;;;;;6.73;100.00;100771.63;4998366;28;20438;-76
2022/11/29 07:34:17;;;;;;;1999.90;999.90;;;;;;;6.79;100.00;100771.69;5007109;28;20037;-76
2022/11/29 07:37:19;;;;;;;1999.90;999.90;;;;;;;6.76;99.44;100769.03;5042577;28;20043;-76
2022/11/29 07:40:02;;;;;;;1999.90;999.90;;;;;;;6.71;99.68;100773.34;5040417;28;20112;-76
2022/11/29 07:43:15;;;;;;;1999.90;999.90;;;;;;;6.77;100.00;100783.03;5043041;28;20367;-75
2022/11/29 07:45:40;;;;;;;1999.90;999.90;;;;;;;6.79;99.98;100779.56;4923940;29;20036;-76
2022/11/29 07:48:06;;;;;;;1999.90;999.90;;;;;;;6.78;99.74;100780.41;4923535;29;20548;-76
2022/11/29 07:50:33;;;;;;;1999.90;999.90;;;;;;;6.79;99.40;100782.19;4980405;28;20049;-76
2022/11/29 07:52:59;;;;;;;1999.90;999.90;;;;;;;6.80;99.19;100781.31;5041289;28;20033;-76
2022/11/29 07:55:25;;;;;;;1999.90;999.90;;;;;;;6.85;99.21;100791.00;5039896;28;20041;-76
2022/11/29 07:57:51;;;;;;;1999.90;999.90;;;;;;;6.91;98.66;100786.69;5041671;28;20048;-76
2022/11/29 08:00:18;;;;;;;1999.90;999.90;;;;;;;6.95;99.00;100793.75;5039458;28;20404;-76
2022/11/29 08:02:45;;;;;;;1999.90;999.90;;;;;;;6.99;98.38;100792.91;5041662;28;20033;-75
2022/11/29 08:05:11;;;;;;;1999.90;999.90;;;;;;;6.94;97.76;100792.00;5034909;28;20047;-76
2022/11/29 08:07:38;;;;;;;1999.90;999.90;;;;;;;6.92;98.49;100796.34;5037842;28;20033;-76
2022/11/29 08:10:06;;;;;;;1999.90;999.90;;;;;;;6.95;98.38;100790.25;5038856;28;20049;-76
2022/11/29 08:12:31;;;;;;;1999.90;999.90;;;;;;;7.00;98.13;100786.81;5044301;28;20033;-76
2022/11/29 08:14:57;;;;;;;1999.90;999.90;;;;;;;7.03;98.16;100793.84;5039008;28;20536;-76
2022/11/29 08:17:23;;;;;;;1999.90;999.90;;;;;;;7.07;97.99;100793.00;5039911;28;20034;-76
2022/11/29 08:19:49;;;;;;;1999.90;999.90;;;;;;;7.14;97.82;100788.72;5040893;28;20069;-76
2022/11/29 08:22:14;;;;;;;1999.90;999.90;;;;;;;7.14;97.74;100792.22;5041491;28;20075;-76
2022/11/29 08:24:39;;;;;;;1999.90;999.90;;;;;;;7.12;97.39;100785.19;5039836;28;20053;-76
2022/11/29 08:27:05;;;;;;;1999.90;999.90;;;;;;;7.18;98.06;100798.41;5042323;28;20037;-76
2022/11/29 08:29:30;;;;;;;750.08;526.90;;;;;;;7.23;97.93;100794.06;5021449;28;20100;-76
2022/11/29 08:31:55;;;;;;;31.50;19.67;;;;;;;7.26;97.44;100794.13;5041772;28;20033;-76
2022/11/29 08:34:22;;;;;;;33.30;22.02;;;;;;;7.29;97.91;100790.66;5037756;28;20044;-76
2022/11/29 08:36:48;;;;;;;37.88;23.77;;;;;;;7.32;97.30;100795.94;5042524;28;20029;-76
2022/11/29 08:39:14;;;;;;;70.07;21.50;;;;;;;7.29;97.10;100796.78;5039886;28;20431;-76
2022/11/29 08:41:39;;;;;;;21.77;12.40;;;;;;;7.21;97.61;100794.06;5042383;28;20124;-76
2022/11/29 08:44:05;;;;;;;20.75;11.93;;;;;;;7.20;97.57;100799.28;5035284;28;20033;-76
2022/11/29 08:49:14;;;;;;;23.95;12.10;;;;;;;7.20;98.05;100815.03;5039106;28;20119;-76
2022/11/29 08:51:40;;;;;;;23.85;12.68;;;;;;;7.17;97.29;100804.50;5039504;28;20128;-76
2022/11/29 08:54:05;;;;;;;25.25;12.52;;;;;;;7.15;97.12;100806.22;5039992;28;20080;-76
2022/11/29 08:56:30;;;;;;;23.73;12.98;;;;;;;7.18;97.32;100804.53;5041462;28;20442;-76
2022/11/29 08:58:56;;;;;;;25.45;12.18;;;;;;;7.30;97.12;100808.16;5044863;28;20037;-76
2022/11/29 09:01:21;;;;;;;22.23;13.25;;;;;;;7.35;96.66;100809.97;5043154;28;20072;-75
2022/11/29 09:03:58;;;;;;;26.25;11.93;;;;;;;7.41;95.64;100810.06;5045377;28;20063;-76
2022/11/29 09:06:25;;;;;;;22.90;12.35;;;;;;;7.45;96.19;100817.09;5044081;28;20033;-76
2022/11/29 09:08:55;;;;;;;20.92;11.00;;;;;;;7.53;95.35;100811.06;5043345;28;20496;-76
2022/11/29 09:11:22;;;;;;;21.63;12.77;;;;;;;7.54;94.87;100815.44;5045982;28;20029;-76
2022/11/29 09:13:50;;;;;;;24.17;13.57;;;;;;;7.59;95.60;100813.75;5043493;28;20021;-76
2022/11/29 09:16:18;;;;;;;20.67;10.75;;;;;;;7.61;94.88;100819.91;5043789;28;20037;-76
2022/11/29 09:18:44;;;;;;;18.65;10.65;;;;;;;7.62;94.57;100816.38;5042659;28;20030;-76
2022/11/29 09:21:12;;;;;;;21.90;11.63;;;;;;;7.63;94.03;100819.03;5045793;28;20495;-76
2022/11/29 09:23:39;;;;;;;20.42;10.32;;;;;;;7.72;94.31;100825.25;5041080;28;20041;-76
2022/11/29 09:26:06;;;;;;;18.10;9.60;;;;;;;7.76;94.52;100827.94;5043203;28;20082;-76
2022/11/29 09:28:32;;;;;;;21.45;10.50;;;;;;;7.76;94.08;100816.56;5043639;28;20376;-76
2022/11/29 09:31:05;;;;;;;20.10;11.27;;;;;;;7.68;94.05;100822.59;5044951;28;20040;-76
2022/11/29 09:33:30;;;;;;;21.55;11.27;;;;;;;7.69;93.86;100820.84;5036351;28;20033;-76
2022/11/29 09:35:57;;;;;;;18.02;10.38;;;;;;;7.74;94.23;100819.16;5044211;28;20093;-76
2022/11/29 09:38:22;;;;;;;19.35;10.27;;;;;;;7.73;94.08;100821.75;5056087;22;20045;-76
2022/11/29 09:41:13;;;;;;;22.60;11.02;;;;;;;7.73;93.67;100830.53;5043184;28;20586;-75
2022/11/29 09:44:03;;;;;;;19.00;9.35;;;;;;;7.77;92.97;100834.06;5043065;28;20143;-74
2022/11/29 09:46:42;;;;;;;18.38;9.80;;;;;;;7.76;93.99;100827.94;5040729;28;20048;-75
2022/11/29 09:49:19;;;;;;;20.17;9.80;;;;;;;7.77;93.64;100824.44;5012258;28;20120;-74
2022/11/29 09:51:56;;;;;;;17.52;9.15;;;;;;;7.77;93.45;100824.44;5008800;28;20037;-75
2022/11/29 09:54:52;;;;;;;18.88;9.68;;;;;;;7.76;94.05;100830.56;5005393;28;20034;-75
2022/11/29 09:57:20;;;;;;;20.45;10.50;;;;;;;7.81;93.16;100830.63;5000774;28;20044;-75
2022/11/29 09:59:50;;;;;;;20.38;11.18;;;;;;;7.73;94.18;100821.75;5010543;28;20030;-74
2022/11/29 10:02:22;;;;;;;15.70;9.27;;;;;;;7.78;94.05;100828.84;5006670;28;20109;-75
2022/11/29 10:04:54;;;;;;;16.38;8.90;;;;;;;7.83;93.46;100828.88;5009081;28;20452;-75
2022/11/29 10:07:26;;;;;;;22.42;10.80;;;;;;;7.87;92.25;100841.19;5004406;28;20210;-75
2022/11/29 10:09:54;;;;;;;18.40;9.73;;;;;;;7.88;92.06;100835.91;5005857;28;20037;-75
2022/11/29 10:12:54;;;;;;;19.60;10.10;;;;;;;7.95;91.69;100836.00;5005167;28;20154;-75
2022/11/29 10:15:27;;;;;;;20.52;11.05;;;;;;;7.94;92.47;100836.84;4973501;28;20509;-75
2022/11/29 10:18:03;;;;;;;17.17;9.63;;;;;;;8.04;92.18;100833.44;5003528;28;20033;-75
2022/11/29 10:20:36;;;;;;;18.00;9.77;;;;;;;7.92;92.93;100839.47;5005128;28;20128;-75
2022/11/29 10:23:18;;;;;;;15.60;9.45;;;;;;;7.92;92.86;100838.59;5003176;28;20042;-75
2022/11/29 10:25:45;;;;;;;15.63;8.60;;;;;;;8.01;93.05;100838.69;5002122;28;20053;-75
2022/11/29 10:28:17;;;;;;;16.02;9.70;;;;;;;7.99;91.51;100840.41;5003760;28;20046;-75
2022/11/29 10:30:43;;;;;;;19.02;8.88;;;;;;;8.00;92.03;100848.31;5004363;28;20042;-75
2022/11/29 10:33:33;;;;;;;16.30;8.48;;;;;;;8.03;90.97;100843.06;5004332;28;20061;-75
2022/11/29 10:36:03;;;;;;;17.95;9.52;;;;;;;8.08;90.94;100840.50;5001361;28;20034;-75
2022/11/29 10:38:29;;;;;;;15.45;8.70;;;;;;;8.08;91.62;100837.88;5003779;28;20033;-75
2022/11/29 10:41:04;;;;;;;17.52;9.05;;;;;;;8.06;91.69;100842.22;5002910;28;20137;-75
2022/11/29 10:43:29;;;;;;;17.05;9.55;;;;;;;8.13;91.77;100844.94;5004568;28;20065;-75
2022/11/29 10:45:57;;;;;;;14.48;7.25;;;;;;;8.19;91.06;100849.34;5004167;28;20080;-75
2022/11/29 10:48:27;;;;;;;13.95;8.63;;;;;;;8.18;91.15;100842.34;5008869;28;20456;-75
2022/11/29 10:50:53;;;;;;;14.95;8.48;;;;;;;8.20;91.84;100845.88;5006664;28;20081;-75
2022/11/29 10:53:22;;;;;;;14.15;7.25;;;;;;;8.30;91.85;100842.44;5003286;28;20065;-75
2022/11/29 10:55:54;;;;;;;14.38;8.07;;;;;;;8.39;90.58;100846.94;5001051;28;20432;-75
2022/11/29 10:58:25;;;;;;;12.80;7.32;;;;;;;8.34;91.34;100843.34;5002547;28;20048;-75
2022/11/29 11:00:55;;;;;;;18.23;8.32;;;;;;;8.27;90.94;100845.03;5011771;28;20030;-75
2022/11/29 11:03:40;;;;;;;16.13;9.00;;;;;;;8.29;91.49;100848.56;5003302;28;20406;-75
2022/11/29 11:06:18;;;;;;;16.50;9.52;;;;;;;8.37;91.22;100847.75;5003448;28;20397;-75
2022/11/29 11:08:50;;;;;;;18.08;9.43;;;;;;;8.48;90.82;100846.13;5002191;28;20040;-75
2022/11/29 11:11:24;;;;;;;18.02;8.77;;;;;;;8.50;90.44;100847.88;5004201;28;20045;-75
2022/11/29 11:14:18;;;;;;;15.25;8.25;;;;;;;8.56;90.83;100841.78;5003878;28;20022;-75
2022/11/29 11:16:44;;;;;;;12.60;7.22;;;;;;;8.63;89.92;100855.88;4998232;28;20633;-74
2022/11/29 11:19:33;;;;;;;12.50;7.30;;;;;;;8.56;89.14;100855.81;5008814;28;20034;-75
2022/11/29 11:22:02;;;;;;;13.63;7.38;;;;;;;8.54;89.64;100854.94;5011358;28;20038;-74
2022/11/29 11:24:32;;;;;;;13.82;7.20;;;;;;;8.59;89.16;100852.31;5011513;28;20025;-74
2022/11/29 11:26:59;;;;;;;14.65;8.00;;;;;;;8.58;89.02;100857.59;5011597;28;21391;-74
2022/11/29 11:29:36;;;;;;;15.00;8.80;;;;;;;8.62;89.55;100859.34;5009679;28;20034;-74
2022/11/29 11:32:03;;;;;;;13.65;8.52;;;;;;;8.62;88.44;100855.00;5011452;28;20421;-74
2022/11/29 11:34:34;;;;;;;14.00;7.60;;;;;;;8.71;88.60;100855.03;5003810;28;20107;-75
2022/11/29 11:37:15;;;;;;;13.90;7.22;;;;;;;8.78;87.90;100856.84;5010280;28;20100;-74
2022/11/29 11:39:46;;;;;;;12.88;6.80;;;;;;;8.76;88.05;100852.47;5003430;28;20050;-74